sensor_id;sensor_type;location;lat;lon;timestamp;P1;durP1;ratioP1;P2;durP2;ratioP2
6177;SDS011;3122;48.208;11.174;2024-03-23T00:55:10;5.57;;;4.80;;
6177;SDS011;3122;48.208;11.174;2024-03-23T01:00:12;6.47;;;4.50;;
6177;SDS011;3122;48.208;11.174;2024-03-23T01:05:12;4.70;;;3.63;;
6177;SDS011;3122;48.208;11.174;2024-03-23T01:10:13;6.17;;;4.00;;
6177;SDS011;3122;48.208;11.174;2024-03-23T01:15:14;6.17;;;4.20;;
6177;SDS011;3122;48.208;11.174;2024-03-23T01:20:14;6.03;;;3.87;;
6177;SDS011;3122;48.208;11.174;2024-03-23T01:25:15;3.60;;;3.30;;
6177;SDS011;3122;48.208;11.174;2024-03-23T01:30:16;4.77;;;3.80;;
6177;SDS011;3122;48.208;11.174;2024-03-23T01:35:19;6.00;;;4.23;;
6177;SDS011;3122;48.208;11.174;2024-03-23T01:40:20;6.20;;;3.93;;
6177;SDS011;3122;48.208;11.174;2024-03-23T01:45:20;6.83;;;5.10;;
6177;SDS011;3122;48.208;11.174;2024-03-23T01:50:30;3.93;;;3.53;;
6177;SDS011;3122;48.208;11.174;2024-03-23T01:55:35;3.97;;;3.60;;
6177;SDS011;3122;48.208;11.174;2024-03-23T02:00:36;3.77;;;3.47;;
6177;SDS011;3122;48.208;11.174;2024-03-23T02:05:37;9.30;;;4.70;;
6177;SDS011;3122;48.208;11.174;2024-03-23T02:10:38;4.07;;;3.67;;
6177;SDS011;3122;48.208;11.174;2024-03-23T02:15:39;4.33;;;3.90;;
6177;SDS011;3122;48.208;11.174;2024-03-23T02:20:39;4.00;;;3.60;;
6177;SDS011;3122;48.208;11.174;2024-03-23T02:25:40;4.40;;;3.40;;
6177;SDS011;3122;48.208;11.174;2024-03-23T02:30:40;3.60;;;3.30;;
6177;SDS011;3122;48.208;11.174;2024-03-23T02:35:41;3.33;;;3.10;;
6177;SDS011;3122;48.208;11.174;2024-03-23T02:40:43;4.07;;;3.57;;
6177;SDS011;3122;48.208;11.174;2024-03-23T02:45:44;4.10;;;3.30;;
6177;SDS011;3122;48.208;11.174;2024-03-23T02:50:44;4.87;;;3.27;;
6177;SDS011;3122;48.208;11.174;2024-03-23T02:55:45;3.70;;;3.40;;
6177;SDS011;3122;48.208;11.174;2024-03-23T03:00:45;5.20;;;3.70;;
6177;SDS011;3122;48.208;11.174;2024-03-23T03:05:46;10.57;;;4.30;;
6177;SDS011;3122;48.208;11.174;2024-03-23T03:10:46;5.30;;;4.17;;
6177;SDS011;3122;48.208;11.174;2024-03-23T03:15:47;3.80;;;3.50;;
6177;SDS011;3122;48.208;11.174;2024-03-23T03:20:48;3.37;;;3.07;;
6177;SDS011;3122;48.208;11.174;2024-03-23T03:25:49;3.23;;;3.00;;
6177;SDS011;3122;48.208;11.174;2024-03-23T03:30:49;3.90;;;2.90;;
6177;SDS011;3122;48.208;11.174;2024-03-23T03:35:50;4.60;;;3.20;;
6177;SDS011;3122;48.208;11.174;2024-03-23T03:40:51;3.63;;;3.27;;
6177;SDS011;3122;48.208;11.174;2024-03-23T03:45:53;3.40;;;2.90;;
6177;SDS011;3122;48.208;11.174;2024-03-23T03:50:54;4.10;;;3.10;;
6177;SDS011;3122;48.208;11.174;2024-03-23T03:55:55;3.20;;;2.80;;
6177;SDS011;3122;48.208;11.174;2024-03-23T04:00:55;3.80;;;3.00;;
6177;SDS011;3122;48.208;11.174;2024-03-23T04:05:56;3.43;;;2.47;;
6177;SDS011;3122;48.208;11.174;2024-03-23T04:10:56;3.13;;;2.83;;
6177;SDS011;3122;48.208;11.174;2024-03-23T04:15:57;2.87;;;2.67;;
6177;SDS011;3122;48.208;11.174;2024-03-23T04:20:57;3.27;;;2.97;;
6177;SDS011;3122;48.208;11.174;2024-03-23T04:26:02;3.00;;;2.57;;
6177;SDS011;3122;48.208;11.174;2024-03-23T04:31:04;3.10;;;2.90;;
6177;SDS011;3122;48.208;11.174;2024-03-23T04:36:05;3.43;;;2.87;;
6177;SDS011;3122;48.208;11.174;2024-03-23T04:41:07;2.63;;;2.43;;
6177;SDS011;3122;48.208;11.174;2024-03-23T04:46:07;3.00;;;2.80;;
6177;SDS011;3122;48.208;11.174;2024-03-23T04:51:08;2.87;;;2.67;;
6177;SDS011;3122;48.208;11.174;2024-03-23T04:56:08;4.20;;;2.60;;
6177;SDS011;3122;48.208;11.174;2024-03-23T05:01:13;6.03;;;2.77;;
6177;SDS011;3122;48.208;11.174;2024-03-23T05:06:14;3.20;;;2.40;;
6177;SDS011;3122;48.208;11.174;2024-03-23T05:11:14;3.13;;;2.83;;
6177;SDS011;3122;48.208;11.174;2024-03-23T05:16:15;2.73;;;2.50;;
6177;SDS011;3122;48.208;11.174;2024-03-23T05:21:16;4.60;;;3.10;;
6177;SDS011;3122;48.208;11.174;2024-03-23T06:36:32;3.10;;;2.90;;
6177;SDS011;3122;48.208;11.174;2024-03-23T06:41:33;2.80;;;2.60;;
6177;SDS011;3122;48.208;11.174;2024-03-23T06:51:34;3.80;;;2.70;;
6177;SDS011;3122;48.208;11.174;2024-03-23T06:56:34;3.80;;;2.80;;
6177;SDS011;3122;48.208;11.174;2024-03-23T07:01:35;4.70;;;2.87;;
6177;SDS011;3122;48.208;11.174;2024-03-23T07:06:42;4.93;;;3.07;;
6177;SDS011;3122;48.208;11.174;2024-03-23T07:11:44;7.23;;;3.50;;
6177;SDS011;3122;48.208;11.174;2024-03-23T07:16:47;3.83;;;3.30;;
6177;SDS011;3122;48.208;11.174;2024-03-23T07:21:50;5.07;;;3.53;;
6177;SDS011;3122;48.208;11.174;2024-03-23T07:26:50;4.33;;;3.93;;
6177;SDS011;3122;48.208;11.174;2024-03-23T07:31:54;7.03;;;4.17;;
6177;SDS011;3122;48.208;11.174;2024-03-23T07:36:54;4.47;;;3.47;;
6177;SDS011;3122;48.208;11.174;2024-03-23T07:41:55;3.80;;;3.50;;
6177;SDS011;3122;48.208;11.174;2024-03-23T07:46:55;6.70;;;3.50;;
6177;SDS011;3122;48.208;11.174;2024-03-23T07:51:56;4.80;;;3.63;;
6177;SDS011;3122;48.208;11.174;2024-03-23T07:56:56;3.97;;;3.57;;
6177;SDS011;3122;48.208;11.174;2024-03-23T08:01:57;5.23;;;3.53;;
6177;SDS011;3122;48.208;11.174;2024-03-23T08:06:58;5.70;;;3.00;;
6177;SDS011;3122;48.208;11.174;2024-03-23T08:11:58;8.63;;;5.97;;
6177;SDS011;3122;48.208;11.174;2024-03-23T08:21:59;3.23;;;2.83;;
6177;SDS011;3122;48.208;11.174;2024-03-23T08:27:00;4.53;;;3.33;;
6177;SDS011;3122;48.208;11.174;2024-03-23T08:32:01;4.20;;;3.40;;
6177;SDS011;3122;48.208;11.174;2024-03-23T08:37:01;5.43;;;3.43;;
6177;SDS011;3122;48.208;11.174;2024-03-23T08:42:02;4.97;;;3.23;;
6177;SDS011;3122;48.208;11.174;2024-03-23T08:52:03;5.25;;;3.60;;
6177;SDS011;3122;48.208;11.174;2024-03-23T08:57:04;5.23;;;3.80;;
6177;SDS011;3122;48.208;11.174;2024-03-23T09:02:04;5.43;;;3.90;;
6177;SDS011;3122;48.208;11.174;2024-03-23T09:07:05;6.10;;;3.80;;
6177;SDS011;3122;48.208;11.174;2024-03-23T09:12:06;3.70;;;3.40;;
6177;SDS011;3122;48.208;11.174;2024-03-23T09:17:06;3.77;;;2.90;;
6177;SDS011;3122;48.208;11.174;2024-03-23T09:22:08;5.70;;;3.40;;
6177;SDS011;3122;48.208;11.174;2024-03-23T09:27:08;3.93;;;3.27;;
6177;SDS011;3122;48.208;11.174;2024-03-23T09:32:09;4.40;;;3.20;;
6177;SDS011;3122;48.208;11.174;2024-03-23T09:37:10;4.03;;;2.70;;
6177;SDS011;3122;48.208;11.174;2024-03-23T09:42:10;2.30;;;2.10;;
6177;SDS011;3122;48.208;11.174;2024-03-23T09:47:11;1.60;;;1.50;;
6177;SDS011;3122;48.208;11.174;2024-03-23T09:52:11;3.23;;;1.87;;
6177;SDS011;3122;48.208;11.174;2024-03-23T09:57:12;2.70;;;2.50;;
6177;SDS011;3122;48.208;11.174;2024-03-23T10:02:13;3.03;;;2.70;;
6177;SDS011;3122;48.208;11.174;2024-03-23T10:07:20;1.67;;;1.53;;
6177;SDS011;3122;48.208;11.174;2024-03-23T10:12:24;1.70;;;1.60;;
6177;SDS011;3122;48.208;11.174;2024-03-23T10:17:25;1.43;;;1.43;;
6177;SDS011;3122;48.208;11.174;2024-03-23T10:22:25;3.43;;;1.10;;
6177;SDS011;3122;48.208;11.174;2024-03-23T10:27:26;2.67;;;1.10;;
6177;SDS011;3122;48.208;11.174;2024-03-23T10:32:27;1.20;;;1.10;;
6177;SDS011;3122;48.208;11.174;2024-03-23T10:37:27;1.40;;;1.30;;
6177;SDS011;3122;48.208;11.174;2024-03-23T10:42:28;1.27;;;1.17;;
6177;SDS011;3122;48.208;11.174;2024-03-23T10:47:29;1.30;;;1.00;;
6177;SDS011;3122;48.208;11.174;2024-03-23T10:52:29;2.10;;;1.30;;
6177;SDS011;3122;48.208;11.174;2024-03-23T10:57:40;1.00;;;1.00;;
6177;SDS011;3122;48.208;11.174;2024-03-23T11:02:48;1.63;;;1.20;;
6177;SDS011;3122;48.208;11.174;2024-03-23T11:07:52;1.30;;;1.20;;
6177;SDS011;3122;48.208;11.174;2024-03-23T11:12:53;1.93;;;1.67;;
6177;SDS011;3122;48.208;11.174;2024-03-23T11:18:04;2.33;;;1.93;;
6177;SDS011;3122;48.208;11.174;2024-03-23T11:23:07;3.77;;;2.33;;
6177;SDS011;3122;48.208;11.174;2024-03-23T11:28:27;3.17;;;2.50;;
6177;SDS011;3122;48.208;11.174;2024-03-23T11:33:28;2.37;;;2.17;;
6177;SDS011;3122;48.208;11.174;2024-03-23T11:38:30;3.50;;;3.20;;
6177;SDS011;3122;48.208;11.174;2024-03-23T11:43:37;3.60;;;2.23;;
6177;SDS011;3122;48.208;11.174;2024-03-23T11:48:37;3.13;;;2.23;;
6177;SDS011;3122;48.208;11.174;2024-03-23T11:53:38;5.33;;;2.73;;
6177;SDS011;3122;48.208;11.174;2024-03-23T11:58:40;3.00;;;2.80;;
6177;SDS011;3122;48.208;11.174;2024-03-23T12:03:43;3.30;;;2.30;;
6177;SDS011;3122;48.208;11.174;2024-03-23T12:08:44;3.03;;;2.57;;
6177;SDS011;3122;48.208;11.174;2024-03-23T12:13:45;3.17;;;2.70;;
6177;SDS011;3122;48.208;11.174;2024-03-23T12:18:47;10.80;;;3.60;;
6177;SDS011;3122;48.208;11.174;2024-03-23T12:23:51;4.43;;;3.60;;
6177;SDS011;3122;48.208;11.174;2024-03-23T12:28:52;4.33;;;2.80;;
6177;SDS011;3122;48.208;11.174;2024-03-23T12:33:52;4.50;;;2.67;;
6177;SDS011;3122;48.208;11.174;2024-03-23T12:38:53;2.97;;;2.53;;
6177;SDS011;3122;48.208;11.174;2024-03-23T12:43:53;4.93;;;3.07;;
6177;SDS011;3122;48.208;11.174;2024-03-23T12:48:54;4.77;;;2.60;;
6177;SDS011;3122;48.208;11.174;2024-03-23T12:53:54;4.77;;;2.90;;
6177;SDS011;3122;48.208;11.174;2024-03-23T12:58:55;5.03;;;3.30;;
6177;SDS011;3122;48.208;11.174;2024-03-23T13:03:57;9.63;;;5.17;;
6177;SDS011;3122;48.208;11.174;2024-03-23T13:08:59;6.33;;;3.63;;
6177;SDS011;3122;48.208;11.174;2024-03-23T13:14:01;6.55;;;4.00;;
6177;SDS011;3122;48.208;11.174;2024-03-23T13:19:03;5.90;;;2.63;;
6177;SDS011;3122;48.208;11.174;2024-03-23T13:34:05;6.67;;;3.30;;
6177;SDS011;3122;48.208;11.174;2024-03-23T13:44:11;6.60;;;3.40;;
6177;SDS011;3122;48.208;11.174;2024-03-23T13:49:26;3.25;;;2.60;;
6177;SDS011;3122;48.208;11.174;2024-03-23T16:14:50;5.77;;;3.30;;
6177;SDS011;3122;48.208;11.174;2024-03-23T16:19:50;7.87;;;3.40;;
6177;SDS011;3122;48.208;11.174;2024-03-23T16:24:51;7.03;;;2.33;;
6177;SDS011;3122;48.208;11.174;2024-03-23T16:29:51;3.50;;;2.60;;
6177;SDS011;3122;48.208;11.174;2024-03-23T16:34:52;6.40;;;3.43;;
6177;SDS011;3122;48.208;11.174;2024-03-23T16:39:52;10.57;;;3.00;;
6177;SDS011;3122;48.208;11.174;2024-03-23T16:44:53;5.37;;;2.97;;
6177;SDS011;3122;48.208;11.174;2024-03-23T16:49:53;5.30;;;3.47;;
6177;SDS011;3122;48.208;11.174;2024-03-23T16:54:54;7.10;;;3.37;;
6177;SDS011;3122;48.208;11.174;2024-03-23T16:59:55;6.67;;;3.20;;
6177;SDS011;3122;48.208;11.174;2024-03-23T17:04:55;3.03;;;2.30;;
6177;SDS011;3122;48.208;11.174;2024-03-23T17:09:56;7.40;;;2.80;;
6177;SDS011;3122;48.208;11.174;2024-03-23T17:14:56;3.73;;;2.77;;
6177;SDS011;3122;48.208;11.174;2024-03-23T17:20:03;3.13;;;1.73;;
6177;SDS011;3122;48.208;11.174;2024-03-23T17:25:04;8.20;;;4.67;;
6177;SDS011;3122;48.208;11.174;2024-03-23T17:30:05;7.40;;;4.07;;
6177;SDS011;3122;48.208;11.174;2024-03-23T17:35:06;3.27;;;2.30;;
6177;SDS011;3122;48.208;11.174;2024-03-23T17:40:07;4.10;;;2.20;;
6177;SDS011;3122;48.208;11.174;2024-03-23T17:45:09;3.00;;;2.20;;
6177;SDS011;3122;48.208;11.174;2024-03-23T17:50:11;2.50;;;2.10;;
6177;SDS011;3122;48.208;11.174;2024-03-23T17:55:12;1.50;;;1.40;;
6177;SDS011;3122;48.208;11.174;2024-03-23T18:00:13;1.70;;;1.60;;
6177;SDS011;3122;48.208;11.174;2024-03-23T18:05:15;5.63;;;2.20;;
6177;SDS011;3122;48.208;11.174;2024-03-23T18:10:19;3.27;;;2.17;;
6177;SDS011;3122;48.208;11.174;2024-03-23T18:15:20;5.10;;;1.83;;
6177;SDS011;3122;48.208;11.174;2024-03-23T18:20:21;1.90;;;1.77;;
6177;SDS011;3122;48.208;11.174;2024-03-23T18:25:22;7.10;;;2.20;;
6177;SDS011;3122;48.208;11.174;2024-03-23T18:30:24;2.30;;;1.63;;
6177;SDS011;3122;48.208;11.174;2024-03-23T18:35:25;2.50;;;1.50;;
6177;SDS011;3122;48.208;11.174;2024-03-23T18:40:25;1.93;;;1.83;;
6177;SDS011;3122;48.208;11.174;2024-03-23T18:45:26;1.50;;;1.40;;
6177;SDS011;3122;48.208;11.174;2024-03-23T18:50:26;1.60;;;1.50;;
6177;SDS011;3122;48.208;11.174;2024-03-23T18:55:27;2.87;;;1.93;;
6177;SDS011;3122;48.208;11.174;2024-03-23T19:00:28;5.10;;;2.10;;
6177;SDS011;3122;48.208;11.174;2024-03-23T19:05:28;2.33;;;1.80;;
6177;SDS011;3122;48.208;11.174;2024-03-23T19:10:29;3.87;;;2.13;;
6177;SDS011;3122;48.208;11.174;2024-03-23T19:15:30;5.53;;;1.80;;
6177;SDS011;3122;48.208;11.174;2024-03-23T19:20:30;2.33;;;1.70;;
6177;SDS011;3122;48.208;11.174;2024-03-23T19:25:32;2.10;;;1.90;;
6177;SDS011;3122;48.208;11.174;2024-03-23T19:30:33;2.33;;;1.70;;
6177;SDS011;3122;48.208;11.174;2024-03-23T19:35:34;3.57;;;1.93;;
6177;SDS011;3122;48.208;11.174;2024-03-23T19:40:35;1.93;;;1.60;;
6177;SDS011;3122;48.208;11.174;2024-03-23T19:45:36;4.03;;;2.10;;
6177;SDS011;3122;48.208;11.174;2024-03-23T19:50:36;2.90;;;2.00;;
6177;SDS011;3122;48.208;11.174;2024-03-23T19:55:37;5.70;;;3.90;;
6177;SDS011;3122;48.208;11.174;2024-03-23T20:00:37;2.40;;;2.17;;
6177;SDS011;3122;48.208;11.174;2024-03-23T20:05:39;5.50;;;2.10;;
6177;SDS011;3122;48.208;11.174;2024-03-23T20:10:46;3.57;;;2.80;;
6177;SDS011;3122;48.208;11.174;2024-03-23T20:15:53;1.70;;;1.60;;
6177;SDS011;3122;48.208;11.174;2024-03-23T20:20:54;2.83;;;1.87;;
6177;SDS011;3122;48.208;11.174;2024-03-23T20:25:56;4.00;;;2.33;;
6177;SDS011;3122;48.208;11.174;2024-03-23T20:30:58;1.97;;;1.30;;
6177;SDS011;3122;48.208;11.174;2024-03-23T20:36:00;1.97;;;1.80;;
6177;SDS011;3122;48.208;11.174;2024-03-23T20:41:02;1.87;;;1.50;;
6177;SDS011;3122;48.208;11.174;2024-03-23T20:46:02;2.13;;;1.70;;
6177;SDS011;3122;48.208;11.174;2024-03-23T20:51:03;6.20;;;2.60;;
6177;SDS011;3122;48.208;11.174;2024-03-23T20:56:04;1.77;;;1.20;;
6177;SDS011;3122;48.208;11.174;2024-03-23T21:01:05;2.30;;;1.80;;
6177;SDS011;3122;48.208;11.174;2024-03-23T21:06:07;1.60;;;1.50;;
6177;SDS011;3122;48.208;11.174;2024-03-23T21:11:08;2.00;;;1.60;;
6177;SDS011;3122;48.208;11.174;2024-03-23T21:16:09;1.73;;;1.40;;
6177;SDS011;3122;48.208;11.174;2024-03-23T21:21:10;1.77;;;1.67;;
6177;SDS011;3122;48.208;11.174;2024-03-23T21:26:10;3.00;;;1.90;;
6177;SDS011;3122;48.208;11.174;2024-03-23T21:31:11;1.90;;;1.70;;
6177;SDS011;3122;48.208;11.174;2024-03-23T21:36:11;1.87;;;1.60;;
6177;SDS011;3122;48.208;11.174;2024-03-23T21:41:12;3.93;;;2.70;;
6177;SDS011;3122;48.208;11.174;2024-03-23T21:46:13;2.63;;;2.43;;
6177;SDS011;3122;48.208;11.174;2024-03-23T21:51:14;1.67;;;1.57;;
6177;SDS011;3122;48.208;11.174;2024-03-23T21:56:15;2.40;;;1.70;;
6177;SDS011;3122;48.208;11.174;2024-03-23T22:01:16;1.30;;;1.20;;
6177;SDS011;3122;48.208;11.174;2024-03-23T22:06:20;2.30;;;1.60;;
6177;SDS011;3122;48.208;11.174;2024-03-23T22:11:20;1.70;;;1.57;;
6177;SDS011;3122;48.208;11.174;2024-03-23T22:16:21;1.50;;;1.37;;
6177;SDS011;3122;48.208;11.174;2024-03-23T22:21:21;1.30;;;1.23;;
6177;SDS011;3122;48.208;11.174;2024-03-23T22:26:22;1.97;;;1.40;;
6177;SDS011;3122;48.208;11.174;2024-03-23T22:31:22;4.10;;;1.20;;
6177;SDS011;3122;48.208;11.174;2024-03-23T22:36:23;1.27;;;1.17;;
6177;SDS011;3122;48.208;11.174;2024-03-23T22:41:23;1.30;;;1.20;;
6177;SDS011;3122;48.208;11.174;2024-03-23T22:46:24;4.07;;;1.63;;
6177;SDS011;3122;48.208;11.174;2024-03-23T22:51:24;2.60;;;1.60;;
6177;SDS011;3122;48.208;11.174;2024-03-23T22:56:25;4.43;;;1.73;;
6177;SDS011;3122;48.208;11.174;2024-03-23T23:01:25;2.70;;;1.70;;
6177;SDS011;3122;48.208;11.174;2024-03-23T23:06:27;3.60;;;1.70;;
6177;SDS011;3122;48.208;11.174;2024-03-23T23:11:28;2.67;;;1.73;;
6177;SDS011;3122;48.208;11.174;2024-03-23T23:16:28;2.23;;;1.70;;
6177;SDS011;3122;48.208;11.174;2024-03-23T23:21:29;3.67;;;1.83;;
6177;SDS011;3122;48.208;11.174;2024-03-23T23:26:30;2.30;;;1.80;;
6177;SDS011;3122;48.208;11.174;2024-03-23T23:31:31;4.33;;;2.10;;
6177;SDS011;3122;48.208;11.174;2024-03-23T23:36:33;2.40;;;1.80;;
6177;SDS011;3122;48.208;11.174;2024-03-23T23:41:33;5.30;;;3.30;;
6177;SDS011;3122;48.208;11.174;2024-03-23T23:46:34;2.83;;;2.07;;
6177;SDS011;3122;48.208;11.174;2024-03-23T23:51:35;1.50;;;1.40;;
6177;SDS011;3122;48.208;11.174;2024-03-23T23:56:35;3.90;;;2.40;;
